createdAt,value
2018-01-30T00:00:31.156Z,1.07
2018-01-30T00:02:58.745Z,1.13
2018-01-30T00:05:26.165Z,1.43
2018-01-30T00:07:53.665Z,1.33
2018-01-30T00:10:21.333Z,1.60
2018-01-30T00:12:48.782Z,1.93
2018-01-30T00:15:16.345Z,0.80
2018-01-30T00:17:43.770Z,1.23
2018-01-30T00:20:11.261Z,1.33
2018-01-30T00:22:38.745Z,1.30
2018-01-30T00:25:06.169Z,1.47
2018-01-30T00:27:33.633Z,1.30
2018-01-30T00:30:01.266Z,0.70
2018-01-30T00:32:28.697Z,0.90
2018-01-30T00:34:56.322Z,0.77
2018-01-30T00:37:23.773Z,1.60
2018-01-30T00:39:51.238Z,1.20
2018-01-30T00:42:18.657Z,0.87
2018-01-30T00:44:46.087Z,0.97
2018-01-30T00:47:13.604Z,1.00
2018-01-30T00:49:41.067Z,1.57
2018-01-30T00:52:08.553Z,1.90
2018-01-30T00:54:35.974Z,1.30
2018-01-30T00:57:03.393Z,1.27
2018-01-30T00:59:30.813Z,1.10
2018-01-30T01:01:58.356Z,0.80
2018-01-30T01:04:25.986Z,0.60
2018-01-30T01:06:53.410Z,0.80
2018-01-30T01:09:20.833Z,1.27
2018-01-30T01:11:48.494Z,0.80
2018-01-30T01:14:15.918Z,1.47
2018-01-30T01:16:43.342Z,1.47
2018-01-30T01:19:10.756Z,1.10
2018-01-30T01:21:38.222Z,1.00
2018-01-30T01:24:05.781Z,1.43
2018-01-30T01:26:33.201Z,0.90
2018-01-30T01:29:00.697Z,1.10
2018-01-30T01:31:28.154Z,0.77
2018-01-30T01:33:55.912Z,1.00
2018-01-30T01:36:23.377Z,1.83
2018-01-30T01:38:50.837Z,1.63
2018-01-30T01:41:18.469Z,1.30
2018-01-30T01:43:45.884Z,0.80
2018-01-30T01:46:13.517Z,1.00
2018-01-30T01:48:41.276Z,0.97
2018-01-30T01:51:08.697Z,1.57
2018-01-30T01:53:36.224Z,1.10
2018-01-30T01:56:03.833Z,1.10
2018-01-30T01:58:32.234Z,1.73
2018-01-30T02:00:59.800Z,1.90
2018-01-30T02:03:27.540Z,1.40
2018-01-30T02:05:55.017Z,1.33
2018-01-30T02:11:13.571Z,1.03
2018-01-30T02:13:41.060Z,1.10
2018-01-30T02:16:08.757Z,1.27
2018-01-30T02:18:36.183Z,1.20
2018-01-30T02:21:03.653Z,1.00
2018-01-30T02:23:31.108Z,1.20
2018-01-30T02:25:58.659Z,1.00
2018-01-30T02:28:26.111Z,1.07
2018-01-30T02:30:53.550Z,1.27
2018-01-30T02:33:20.975Z,1.30
2018-01-30T02:35:48.491Z,1.47
2018-01-30T02:38:16.130Z,2.10
2018-01-30T02:40:43.558Z,1.27
2018-01-30T02:43:11.783Z,1.07
2018-01-30T02:45:39.240Z,1.37
2018-01-30T02:48:07.009Z,1.40
2018-01-30T02:50:34.660Z,2.07
2018-01-30T02:53:02.089Z,1.30
2018-01-30T02:55:29.687Z,1.87
2018-01-30T02:57:57.115Z,1.83
2018-01-30T03:00:24.605Z,2.60
2018-01-30T03:02:52.235Z,2.70
2018-01-30T03:05:19.736Z,2.03
2018-01-30T03:07:47.184Z,2.57
2018-01-30T03:10:14.639Z,2.60
2018-01-30T03:12:42.070Z,1.50
2018-01-30T03:15:09.660Z,2.20
2018-01-30T03:17:37.299Z,2.20
2018-01-30T03:20:04.727Z,2.40
2018-01-30T03:22:32.914Z,2.93
2018-01-30T03:25:00.411Z,1.83
2018-01-30T03:27:27.871Z,2.10
2018-01-30T03:29:55.297Z,2.40
2018-01-30T03:32:22.736Z,2.60
2018-01-30T03:34:50.252Z,2.73
2018-01-30T03:37:17.829Z,3.20
2018-01-30T03:39:45.364Z,2.80
2018-01-30T03:42:12.804Z,4.43
2018-01-30T03:44:40.288Z,4.67
2018-01-30T03:47:07.751Z,4.33
2018-01-30T03:49:35.204Z,3.00
2018-01-30T03:52:02.644Z,5.17
2018-01-30T03:54:30.143Z,3.47
2018-01-30T03:56:57.575Z,2.80
2018-01-30T03:59:25.131Z,4.73
2018-01-30T04:01:52.586Z,4.07
2018-01-30T04:04:20.021Z,4.70
2018-01-30T04:06:47.456Z,4.60
2018-01-30T04:09:14.883Z,5.60
2018-01-30T04:11:42.323Z,4.30
2018-01-30T04:14:09.871Z,3.83
2018-01-30T04:16:37.335Z,5.10
2018-01-30T04:19:04.768Z,4.93
2018-01-30T04:21:32.256Z,5.00
2018-01-30T04:23:59.715Z,5.20
2018-01-30T04:26:27.166Z,5.30
2018-01-30T04:28:54.710Z,6.10
2018-01-30T04:31:22.392Z,5.20
2018-01-30T04:33:49.822Z,5.60
2018-01-30T04:36:17.304Z,5.57
2018-01-30T04:38:45.076Z,5.90
2018-01-30T04:41:12.507Z,6.37
2018-01-30T04:43:39.938Z,4.70
2018-01-30T04:46:08.268Z,6.03
2018-01-30T04:48:35.828Z,6.20
2018-01-30T04:51:03.285Z,4.23
2018-01-30T04:53:30.727Z,5.20
2018-01-30T04:55:58.196Z,6.37
2018-01-30T04:58:25.655Z,5.40
2018-01-30T05:00:53.096Z,6.90
2018-01-30T05:03:20.571Z,6.13
2018-01-30T05:05:48.005Z,6.17
2018-01-30T05:08:15.436Z,6.70
2018-01-30T05:10:42.942Z,6.70
2018-01-30T05:13:10.378Z,5.23
2018-01-30T05:15:37.812Z,6.50
2018-01-30T05:18:05.319Z,5.87
2018-01-30T05:20:33.075Z,4.80
2018-01-30T05:23:00.723Z,5.30
2018-01-30T05:25:28.217Z,6.33
2018-01-30T05:27:55.674Z,6.87
2018-01-30T05:30:23.223Z,6.70
2018-01-30T05:32:50.654Z,5.10
2018-01-30T05:35:18.135Z,8.00
2018-01-30T05:37:45.781Z,5.90
2018-01-30T05:40:13.271Z,5.60
2018-01-30T05:42:40.719Z,5.73
2018-01-30T05:45:08.195Z,6.57
2018-01-30T05:47:35.732Z,7.30
2018-01-30T05:50:03.192Z,7.37
2018-01-30T05:52:30.652Z,6.60
2018-01-30T05:54:58.095Z,7.07
2018-01-30T05:57:25.528Z,6.70
2018-01-30T05:59:52.959Z,6.30
2018-01-30T06:02:20.396Z,4.50
2018-01-30T06:04:47.836Z,5.10
2018-01-30T06:07:15.264Z,7.37
2018-01-30T06:09:42.690Z,6.60
2018-01-30T06:12:10.936Z,6.80
2018-01-30T06:14:38.692Z,4.63
2018-01-30T06:17:06.124Z,6.17
2018-01-30T06:19:33.561Z,6.50
2018-01-30T06:22:01.060Z,5.77
2018-01-30T06:24:28.826Z,6.30
2018-01-30T06:26:56.283Z,7.20
2018-01-30T06:29:23.743Z,8.17
2018-01-30T06:31:51.176Z,6.53
2018-01-30T06:34:18.612Z,8.40
2018-01-30T06:36:46.048Z,7.13
2018-01-30T06:39:13.575Z,6.00
2018-01-30T06:41:41.035Z,9.17
2018-01-30T06:44:09.291Z,6.97
2018-01-30T06:46:36.779Z,8.13
2018-01-30T06:49:04.263Z,8.20
2018-01-30T06:51:31.699Z,8.10
2018-01-30T06:53:59.245Z,9.23
2018-01-30T06:56:26.880Z,7.80
2018-01-30T06:58:54.469Z,6.20
2018-01-30T07:01:22.231Z,8.30
2018-01-30T07:03:49.668Z,7.70
2018-01-30T07:06:17.152Z,7.83
2018-01-30T07:08:44.790Z,8.63
2018-01-30T07:11:12.377Z,8.37
2018-01-30T07:13:40.139Z,7.43
2018-01-30T07:16:07.775Z,9.20
2018-01-30T07:18:35.351Z,8.10
2018-01-30T07:21:02.783Z,7.20
2018-01-30T07:23:30.216Z,8.77
2018-01-30T07:25:57.737Z,7.50
2018-01-30T07:28:25.171Z,6.50
2018-01-30T07:30:52.603Z,8.10
2018-01-30T07:33:20.347Z,8.33
2018-01-30T07:35:47.876Z,7.63
2018-01-30T07:38:15.304Z,6.50
2018-01-30T07:40:42.739Z,7.23
2018-01-30T07:43:10.175Z,8.23
2018-01-30T07:45:37.640Z,7.37
2018-01-30T07:48:05.092Z,7.93
2018-01-30T07:50:32.529Z,6.70
2018-01-30T07:52:59.988Z,7.50
2018-01-30T07:55:27.536Z,8.37
2018-01-30T07:57:55.176Z,7.23
2018-01-30T08:00:22.667Z,6.97
2018-01-30T08:02:50.215Z,9.40
2018-01-30T08:05:17.860Z,6.13
2018-01-30T08:07:45.445Z,7.93
2018-01-30T08:10:12.895Z,8.30
2018-01-30T08:12:40.537Z,7.40
2018-01-30T08:15:07.967Z,6.70
2018-01-30T08:17:36.172Z,6.90
2018-01-30T08:20:03.608Z,7.30
2018-01-30T08:22:31.031Z,7.60
2018-01-30T08:24:58.461Z,7.30
2018-01-30T08:27:26.023Z,7.30
2018-01-30T08:29:53.457Z,8.43
2018-01-30T08:32:20.883Z,6.33
2018-01-30T08:34:48.703Z,7.80
2018-01-30T08:37:16.140Z,9.23
2018-01-30T08:39:43.568Z,7.47
2018-01-30T08:42:10.995Z,8.77
2018-01-30T08:44:38.428Z,7.20
2018-01-30T08:47:05.902Z,7.73
2018-01-30T08:49:33.446Z,7.60
2018-01-30T08:52:01.221Z,8.97
2018-01-30T08:54:28.859Z,9.00
2018-01-30T08:56:56.444Z,8.40
2018-01-30T08:59:23.880Z,9.57
2018-01-30T09:01:51.310Z,6.43
2018-01-30T09:04:18.749Z,7.13
2018-01-30T09:06:46.276Z,9.20
2018-01-30T09:09:14.085Z,8.50
2018-01-30T09:11:41.469Z,8.73
2018-01-30T09:14:08.951Z,8.27
2018-01-30T09:16:36.387Z,9.93
2018-01-30T09:19:03.876Z,10.17
2018-01-30T09:21:31.631Z,8.57
2018-01-30T09:23:59.115Z,10.70
2018-01-30T09:26:26.502Z,9.50
2018-01-30T09:28:54.002Z,8.90
2018-01-30T09:31:21.459Z,9.20
2018-01-30T09:33:49.108Z,9.87
2018-01-30T09:36:16.543Z,10.60
2018-01-30T09:38:44.142Z,10.80
2018-01-30T09:41:11.584Z,10.10
2018-01-30T09:43:39.072Z,10.87
2018-01-30T09:46:06.503Z,12.60
2018-01-30T09:48:33.949Z,11.67
2018-01-30T09:51:01.379Z,9.70
2018-01-30T09:53:28.820Z,11.77
2018-01-30T09:55:56.251Z,11.03
2018-01-30T09:58:23.692Z,13.10
2018-01-30T10:00:51.267Z,11.33
2018-01-30T10:03:18.699Z,10.10
2018-01-30T10:05:46.191Z,12.00
2018-01-30T10:08:13.829Z,11.27
2018-01-30T10:10:41.311Z,10.93
2018-01-30T10:13:08.743Z,11.50
2018-01-30T10:15:36.323Z,10.63
2018-01-30T10:18:03.797Z,9.73
2018-01-30T10:20:31.451Z,10.90
2018-01-30T10:22:58.888Z,12.17
2018-01-30T10:25:26.360Z,9.70
2018-01-30T10:27:53.896Z,9.47
2018-01-30T10:30:21.327Z,10.53
2018-01-30T10:32:48.761Z,11.43
2018-01-30T10:35:16.186Z,9.47
2018-01-30T10:37:43.625Z,8.53
2018-01-30T10:40:11.211Z,10.40
2018-01-30T10:42:38.659Z,9.10
2018-01-30T10:45:06.310Z,10.47
2018-01-30T10:47:33.788Z,10.33
2018-01-30T10:50:01.373Z,7.83
2018-01-30T10:52:28.805Z,10.43
2018-01-30T10:54:56.244Z,9.60
2018-01-30T10:57:23.715Z,9.70
2018-01-30T10:59:51.150Z,10.03
2018-01-30T11:02:18.583Z,8.37
2018-01-30T11:04:46.828Z,10.63
2018-01-30T11:07:14.284Z,8.97
2018-01-30T11:09:41.715Z,8.30
2018-01-30T11:12:09.261Z,8.33
2018-01-30T11:14:36.844Z,7.43
2018-01-30T11:17:04.543Z,7.70
2018-01-30T11:19:32.072Z,8.80
2018-01-30T11:21:59.500Z,9.00
2018-01-30T11:24:26.940Z,8.63
2018-01-30T11:26:54.456Z,9.57
2018-01-30T11:29:21.979Z,9.67
2018-01-30T11:31:49.544Z,13.33
2018-01-30T11:34:17.027Z,9.37
2018-01-30T11:36:44.454Z,7.40
2018-01-30T11:39:11.941Z,7.23
2018-01-30T11:41:39.379Z,5.67
2018-01-30T11:44:06.963Z,6.60
2018-01-30T11:46:34.415Z,6.50
2018-01-30T11:49:02.052Z,6.33
2018-01-30T11:51:29.483Z,6.17
2018-01-30T11:53:57.692Z,4.90
2018-01-30T11:56:25.346Z,6.03
2018-01-30T11:58:52.832Z,6.33
2018-01-30T12:01:20.382Z,7.50
2018-01-30T12:03:48.025Z,7.47
2018-01-30T12:06:15.607Z,6.57
2018-01-30T12:08:43.247Z,8.73
2018-01-30T12:11:10.835Z,7.87
2018-01-30T12:13:38.333Z,8.27
2018-01-30T12:16:05.725Z,8.23
2018-01-30T12:18:33.155Z,7.90
2018-01-30T12:21:00.663Z,9.10
2018-01-30T12:23:28.120Z,8.80
2018-01-30T12:25:55.760Z,9.30
2018-01-30T12:28:23.250Z,8.87
2018-01-30T12:30:50.707Z,8.37
2018-01-30T12:33:18.191Z,8.20
2018-01-30T12:35:45.679Z,6.90
2018-01-30T12:38:13.179Z,8.70
2018-01-30T12:40:40.633Z,9.30
2018-01-30T12:43:08.065Z,7.80
2018-01-30T12:45:35.547Z,8.73
2018-01-30T12:48:03.009Z,7.83
2018-01-30T12:50:30.444Z,9.03
2018-01-30T12:52:57.876Z,8.47
2018-01-30T12:55:25.306Z,10.00
2018-01-30T12:57:52.848Z,9.70
2018-01-30T13:00:20.291Z,10.37
2018-01-30T13:02:48.663Z,8.80
2018-01-30T13:05:16.158Z,11.65
2018-01-30T13:07:43.899Z,10.17
2018-01-30T13:10:11.364Z,8.87
2018-01-30T13:35:03.076Z,10.23
2018-01-30T13:37:30.648Z,8.60
2018-01-30T13:39:58.093Z,9.93
2018-01-30T13:42:25.536Z,10.10
2018-01-30T13:44:53.024Z,11.20
2018-01-30T13:47:20.792Z,10.13
2018-01-30T13:49:49.000Z,11.40
2018-01-30T13:52:17.199Z,11.70
2018-01-30T13:54:44.691Z,9.20
2018-01-30T13:57:12.133Z,10.83
2018-01-30T13:59:39.568Z,7.73
2018-01-30T14:02:06.995Z,8.97
2018-01-30T14:04:34.527Z,8.77
2018-01-30T14:07:01.984Z,8.70
2018-01-30T14:09:29.619Z,8.20
2018-01-30T14:11:57.104Z,8.60
2018-01-30T14:14:24.551Z,8.50
2018-01-30T14:16:52.019Z,9.10
2018-01-30T14:19:19.584Z,9.67
2018-01-30T14:21:47.019Z,8.00
2018-01-30T14:24:14.491Z,7.60
2018-01-30T14:26:41.951Z,8.17
2018-01-30T14:29:09.404Z,8.13
2018-01-30T14:31:36.871Z,6.90
2018-01-30T14:34:04.317Z,7.57
2018-01-30T14:36:31.764Z,7.97
2018-01-30T14:38:59.444Z,7.43
2018-01-30T14:41:26.883Z,7.60
2018-01-30T14:43:54.375Z,7.67
2018-01-30T14:46:21.808Z,7.47
2018-01-30T14:48:49.295Z,7.90
2018-01-30T14:51:16.748Z,8.23
2018-01-30T14:53:44.599Z,6.60
2018-01-30T14:56:12.032Z,8.37
2018-01-30T14:58:39.458Z,8.70
2018-01-30T15:01:06.986Z,8.40
2018-01-30T15:03:34.410Z,9.30
2018-01-30T15:06:01.897Z,7.87
2018-01-30T15:08:29.530Z,8.30
2018-01-30T15:10:56.999Z,8.57
2018-01-30T15:13:24.522Z,8.90
2018-01-30T15:15:51.975Z,9.20
2018-01-30T15:18:19.489Z,7.30
2018-01-30T15:20:46.938Z,8.30
2018-01-30T15:23:14.380Z,9.03
2018-01-30T15:25:41.833Z,8.27
2018-01-30T15:28:09.500Z,9.90
2018-01-30T15:30:36.973Z,8.87
2018-01-30T15:33:04.420Z,8.43
2018-01-30T15:35:31.863Z,9.90
2018-01-30T15:37:59.459Z,8.20
2018-01-30T15:40:26.918Z,8.93
2018-01-30T15:42:54.360Z,8.90
2018-01-30T15:45:21.835Z,8.50
2018-01-30T15:47:49.595Z,10.03
2018-01-30T15:50:17.043Z,9.00
2018-01-30T15:52:44.695Z,10.40
2018-01-30T15:55:12.168Z,8.47
2018-01-30T15:57:39.612Z,10.00
2018-01-30T16:00:07.131Z,7.97
2018-01-30T16:02:34.652Z,9.70
2018-01-30T16:05:02.318Z,9.93
2018-01-30T16:07:29.789Z,9.47
2018-01-30T16:09:57.330Z,8.93
2018-01-30T16:12:24.977Z,9.37
2018-01-30T16:14:52.642Z,8.93
2018-01-30T16:17:20.320Z,8.50
2018-01-30T16:19:47.753Z,8.10
2018-01-30T16:22:15.211Z,8.00
2018-01-30T16:24:42.689Z,9.17
2018-01-30T16:27:10.092Z,9.10
2018-01-30T16:29:37.527Z,9.90
2018-01-30T16:32:05.077Z,9.87
2018-01-30T16:34:32.542Z,8.47
2018-01-30T16:36:59.955Z,9.70
2018-01-30T16:39:27.388Z,9.23
2018-01-30T16:41:54.899Z,9.00
2018-01-30T16:44:22.364Z,9.93
2018-01-30T16:46:49.807Z,9.40
2018-01-30T16:49:17.478Z,9.70
2018-01-30T16:51:44.963Z,8.93
2018-01-30T16:54:12.408Z,10.87
2018-01-30T16:56:39.857Z,9.30
2018-01-30T16:59:07.412Z,11.27
2018-01-30T17:01:34.870Z,10.97
2018-01-30T17:04:02.637Z,12.30
2018-01-30T17:06:30.406Z,11.30
2018-01-30T17:08:58.050Z,12.03
2018-01-30T17:11:25.529Z,11.73
2018-01-30T17:13:53.083Z,11.37
2018-01-30T17:16:20.719Z,10.30
2018-01-30T17:18:48.251Z,11.20
2018-01-30T17:21:15.767Z,12.50
2018-01-30T17:23:43.409Z,12.00
2018-01-30T17:26:10.895Z,10.70
2018-01-30T17:28:38.328Z,10.70
2018-01-30T17:31:05.908Z,11.10
2018-01-30T17:33:33.340Z,10.60
2018-01-30T17:36:00.779Z,10.93
2018-01-30T17:38:28.223Z,10.20
2018-01-30T17:40:55.744Z,11.63
2018-01-30T17:43:23.380Z,10.70
2018-01-30T17:45:50.816Z,11.47
2018-01-30T17:48:18.421Z,10.47
2018-01-30T17:50:46.052Z,11.03
2018-01-30T17:53:13.511Z,10.47
2018-01-30T17:55:40.995Z,11.40
2018-01-30T17:58:08.551Z,10.63
2018-01-30T18:00:35.984Z,10.63
2018-01-30T18:03:03.430Z,12.50
2018-01-30T18:05:30.928Z,11.70
2018-01-30T18:07:58.562Z,12.20
2018-01-30T18:10:26.055Z,25.13
2018-01-30T18:12:53.503Z,16.17
2018-01-30T18:15:20.975Z,12.47
2018-01-30T18:17:48.523Z,12.20
2018-01-30T18:20:15.989Z,9.03
2018-01-30T18:22:43.442Z,9.03
2018-01-30T18:25:10.880Z,10.57
2018-01-30T18:27:38.334Z,12.23
2018-01-30T18:30:05.763Z,11.93
2018-01-30T18:32:33.211Z,10.17
2018-01-30T18:35:00.652Z,13.13
2018-01-30T18:37:28.183Z,9.53
2018-01-30T18:39:55.624Z,12.47
2018-01-30T18:42:23.108Z,11.10
2018-01-30T18:44:50.727Z,12.47
2018-01-30T18:47:18.211Z,10.77
2018-01-30T18:49:45.652Z,10.77
2018-01-30T18:52:13.095Z,10.60
2018-01-30T18:54:40.653Z,11.37
2018-01-30T18:57:08.071Z,12.03
2018-01-30T18:59:36.531Z,14.97
2018-01-30T19:02:03.984Z,11.70
2018-01-30T19:04:31.640Z,12.80
2018-01-30T19:06:59.119Z,12.30
2018-01-30T19:09:26.572Z,9.93
2018-01-30T19:11:54.038Z,11.97
2018-01-30T19:14:21.503Z,11.20
2018-01-30T19:16:48.944Z,12.13
2018-01-30T19:19:16.512Z,12.07
2018-01-30T19:21:44.148Z,10.13
2018-01-30T19:24:11.801Z,11.97
2018-01-30T19:26:39.396Z,11.10
2018-01-30T19:29:07.207Z,11.40
2018-01-30T19:31:34.643Z,9.93
2018-01-30T19:34:02.092Z,10.30
2018-01-30T19:36:29.635Z,10.50
2018-01-30T19:38:57.401Z,9.70
2018-01-30T19:41:24.844Z,11.87
2018-01-30T19:43:52.319Z,10.20
2018-01-30T19:46:19.752Z,11.40
2018-01-30T19:48:47.200Z,12.53
2018-01-30T19:51:14.634Z,13.60
2018-01-30T19:53:42.082Z,12.70
2018-01-30T19:56:09.517Z,13.90
2018-01-30T19:58:36.959Z,18.17
2018-01-30T20:01:04.397Z,15.80
2018-01-30T20:03:31.895Z,11.30
2018-01-30T20:05:59.346Z,13.37
2018-01-30T20:08:26.795Z,12.90
2018-01-30T20:10:54.356Z,11.47
2018-01-30T20:13:22.111Z,11.30
2018-01-30T20:15:49.596Z,11.30
2018-01-30T20:18:17.222Z,14.00
2018-01-30T20:20:45.608Z,11.40
2018-01-30T20:23:13.099Z,10.00
2018-01-30T20:25:40.535Z,11.20
2018-01-30T20:28:08.323Z,11.60
2018-01-30T20:30:35.703Z,11.90
2018-01-30T20:33:03.927Z,10.93
2018-01-30T20:35:31.382Z,12.47
2018-01-30T20:37:58.843Z,10.67
2018-01-30T20:40:26.292Z,9.53
2018-01-30T20:42:53.723Z,9.00
2018-01-30T20:45:21.167Z,9.00
2018-01-30T20:47:48.608Z,10.20
2018-01-30T20:50:16.747Z,8.03
2018-01-30T20:52:44.188Z,11.20
2018-01-30T20:55:11.639Z,9.30
2018-01-30T20:57:39.068Z,9.53
2018-01-30T21:00:06.590Z,9.77
2018-01-30T21:02:34.219Z,10.27
2018-01-30T21:05:01.808Z,9.37
2018-01-30T21:07:29.238Z,8.80
2018-01-30T21:09:56.696Z,9.20
2018-01-30T21:12:24.126Z,7.30
2018-01-30T21:14:51.588Z,11.30
2018-01-30T21:17:19.922Z,11.27
2018-01-30T21:19:47.367Z,7.93
2018-01-30T21:22:14.936Z,9.60
2018-01-30T21:24:42.380Z,9.57
2018-01-30T21:27:10.031Z,10.27
2018-01-30T21:29:37.611Z,9.43
2018-01-30T21:32:05.040Z,9.60
2018-01-30T21:34:32.488Z,8.40
2018-01-30T21:36:59.927Z,9.00
2018-01-30T21:39:27.371Z,7.67
2018-01-30T21:41:54.807Z,7.90
2018-01-30T21:44:22.359Z,7.50
2018-01-30T21:46:49.838Z,8.10
2018-01-30T21:49:17.279Z,9.07
2018-01-30T21:51:44.715Z,8.93
2018-01-30T21:54:18.370Z,8.77
2018-01-30T21:56:39.636Z,6.73
2018-01-30T21:59:07.071Z,8.80
2018-01-30T22:01:34.511Z,5.83
2018-01-30T22:04:02.020Z,6.90
2018-01-30T22:06:29.676Z,6.30
2018-01-30T22:08:57.127Z,7.03
2018-01-30T22:11:24.616Z,6.60
2018-01-30T22:13:52.068Z,7.07
2018-01-30T22:16:19.516Z,7.27
2018-01-30T22:18:47.016Z,5.87
2018-01-30T22:21:14.528Z,7.40
2018-01-30T22:23:41.991Z,7.90
2018-01-30T22:26:09.435Z,6.97
2018-01-30T22:28:36.871Z,6.53
2018-01-30T22:31:04.311Z,6.97
2018-01-30T22:33:31.743Z,5.20
2018-01-30T22:35:59.183Z,6.10
2018-01-30T22:38:26.620Z,5.63
2018-01-30T22:40:54.067Z,6.67
2018-01-30T22:43:21.587Z,4.70
2018-01-30T22:45:49.942Z,5.70
